Time;durP1;ratioP1;P1;durP2;ratioP2;P2;SDS_P1;SDS_P2;PMS_P1;PMS_P2;Temp;Humidity;BMP_temperature;BMP_pressure;BME280_temperature;BME280_humidity;BME280_pressure;Samples;Min_cycle;Max_cycle;Signal;HPM_P1;HPM_P2
2022/03/09 00:00:15;;;;;;;4.40;3.38;;;;;;;17.42;32.83;102242.94;5109797;28;20433;-39
2022/03/09 00:02:42;;;;;;;7.05;4.00;;;;;;;17.42;32.86;102245.63;5106229;27;20123;-42
2022/03/09 00:05:09;;;;;;;5.15;3.67;;;;;;;17.39;32.39;102252.06;5107708;27;20051;-40
2022/03/09 00:07:35;;;;;;;5.70;3.45;;;;;;;17.39;32.40;102249.38;5109362;28;20132;-40
2022/03/09 00:10:04;;;;;;;5.28;3.30;;;;;;;17.38;32.46;102246.81;5107336;27;20698;-40
2022/03/09 00:12:31;;;;;;;7.93;3.65;;;;;;;17.37;32.34;102250.47;5105243;28;20085;-39
2022/03/09 00:14:57;;;;;;;5.55;3.63;;;;;;;17.35;32.74;102261.28;5108216;28;20089;-40
2022/03/09 00:17:26;;;;;;;5.20;3.53;;;;;;;17.32;32.88;102255.31;5105961;28;20126;-40
2022/03/09 00:19:52;;;;;;;4.75;3.85;;;;;;;17.29;32.34;102256.41;5110165;28;20062;-40
2022/03/09 00:22:19;;;;;;;6.47;3.83;;;;;;;17.29;32.53;102264.44;5109610;27;20150;-41
2022/03/09 00:24:45;;;;;;;6.20;3.60;;;;;;;17.26;32.63;102262.00;5110022;27;20122;-39
2022/03/09 00:27:12;;;;;;;5.97;4.05;;;;;;;17.25;32.70;102265.66;5106665;27;20442;-40
2022/03/09 00:29:39;;;;;;;5.40;3.80;;;;;;;17.21;32.20;102267.69;5109386;28;20055;-40
2022/03/09 00:32:06;;;;;;;6.80;4.47;;;;;;;17.20;32.00;102267.78;5105808;28;20059;-40
2022/03/09 00:34:33;;;;;;;5.40;3.50;;;;;;;17.19;31.96;102269.63;5102603;28;20143;-41
2022/03/09 00:37:01;;;;;;;4.82;3.35;;;;;;;17.19;32.71;102266.94;5105817;28;20128;-40
2022/03/09 00:39:27;;;;;;;4.97;3.50;;;;;;;17.18;32.31;102275.94;5102549;28;20387;-40
2022/03/09 00:41:54;;;;;;;5.70;3.67;;;;;;;17.17;32.46;102270.72;5103450;28;20061;-37
2022/03/09 00:44:20;;;;;;;4.70;3.65;;;;;;;17.16;32.29;102275.19;5098640;28;20051;-38
2022/03/09 00:46:47;;;;;;;6.20;3.97;;;;;;;17.14;32.44;102266.44;5104908;28;20051;-39
2022/03/09 00:49:15;;;;;;;5.03;3.60;;;;;;;17.13;31.75;102266.56;5102547;28;20444;-39
2022/03/09 00:51:41;;;;;;;4.47;3.30;;;;;;;17.11;31.96;102266.66;5097555;28;20052;-39
2022/03/09 00:54:08;;;;;;;7.03;3.60;;;;;;;17.09;32.46;102268.59;5099597;28;20048;-39
2022/03/09 00:56:36;;;;;;;5.88;3.80;;;;;;;17.10;32.19;102278.34;5099478;28;20138;-38
2022/03/09 00:59:03;;;;;;;7.07;3.63;;;;;;;17.09;31.73;102279.31;5105232;28;20043;-39
2022/03/09 01:01:29;;;;;;;6.28;3.97;;;;;;;17.08;31.84;102266.88;5104992;28;20079;-38
2022/03/09 01:03:56;;;;;;;6.88;4.05;;;;;;;17.06;32.16;102276.84;5104603;28;20043;-39
2022/03/09 01:06:23;;;;;;;5.00;3.53;;;;;;;17.05;32.50;102275.16;5103697;28;20040;-37
2022/03/09 01:08:50;;;;;;;5.32;3.65;;;;;;;17.03;32.81;102274.41;5103380;28;20062;-38
2022/03/09 01:11:16;;;;;;;8.27;3.90;;;;;;;17.02;32.68;102283.41;5106568;28;20144;-38
2022/03/09 01:13:43;;;;;;;6.82;3.60;;;;;;;16.99;32.28;102279.13;5102255;28;20074;-38
2022/03/09 01:16:09;;;;;;;5.35;3.65;;;;;;;16.99;32.38;102278.25;5102587;28;20496;-38
2022/03/09 01:18:36;;;;;;;6.30;3.60;;;;;;;16.98;32.45;102274.72;5105446;28;20067;-38
2022/03/09 01:21:02;;;;;;;5.30;3.70;;;;;;;16.97;32.12;102270.34;5100184;28;20039;-38
2022/03/09 01:23:29;;;;;;;4.65;3.40;;;;;;;16.95;32.40;102271.41;5107587;28;20043;-38
2022/03/09 01:25:55;;;;;;;5.13;3.42;;;;;;;16.97;32.52;102274.84;5106265;28;20122;-39
2022/03/09 01:28:22;;;;;;;4.47;3.28;;;;;;;16.94;32.73;102275.91;5106885;28;20051;-39
2022/03/09 01:30:49;;;;;;;4.82;3.63;;;;;;;16.95;32.32;102279.47;5106877;28;20092;-38
2022/03/09 01:33:15;;;;;;;5.10;3.72;;;;;;;16.93;32.06;102268.88;5102266;28;20158;-38
2022/03/09 01:35:42;;;;;;;4.28;3.15;;;;;;;16.93;32.17;102279.59;5105555;28;20134;-39
2022/03/09 01:38:09;;;;;;;5.05;3.45;;;;;;;16.92;32.17;102266.28;5103470;28;20422;-39
2022/03/09 01:40:35;;;;;;;4.28;3.22;;;;;;;16.90;32.21;102261.03;5102078;28;20135;-39
2022/03/09 01:43:02;;;;;;;3.53;2.80;;;;;;;16.88;33.12;102260.28;5104479;28;20071;-39
2022/03/09 01:45:28;;;;;;;4.40;3.40;;;;;;;16.89;32.73;102278.09;5101624;28;20147;-39
2022/03/09 01:47:55;;;;;;;5.18;3.53;;;;;;;16.87;32.58;102263.94;5106588;28;20047;-40
2022/03/09 01:50:22;;;;;;;4.57;3.35;;;;;;;16.86;32.24;102261.38;5102158;28;20043;-39
2022/03/09 01:52:48;;;;;;;5.07;3.30;;;;;;;16.84;32.74;102264.16;5103476;28;21532;-39
2022/03/09 01:55:15;;;;;;;4.47;3.33;;;;;;;16.85;32.08;102259.69;5099774;28;20048;-38
2022/03/09 01:57:41;;;;;;;5.32;3.80;;;;;;;16.83;32.25;102261.59;5099855;28;20471;-39
2022/03/09 02:00:10;;;;;;;5.50;3.55;;;;;;;16.82;32.81;102259.91;5100282;28;20043;-38
2022/03/09 02:02:37;;;;;;;5.03;3.30;;;;;;;16.81;32.54;102260.88;5102116;28;20241;-38
2022/03/09 02:05:04;;;;;;;4.03;3.13;;;;;;;16.78;33.13;102262.78;5103939;28;20441;-39
2022/03/09 02:10:20;;;;;;;4.32;3.38;;;;;;;16.75;32.47;102257.66;5100271;28;20151;-38
2022/03/09 02:12:47;;;;;;;4.40;3.15;;;;;;;16.74;31.97;102245.22;5106628;28;20058;-39
2022/03/09 02:15:14;;;;;;;6.03;3.38;;;;;;;16.75;32.36;102246.94;5098282;28;20319;-38
2022/03/09 02:17:41;;;;;;;3.75;3.22;;;;;;;16.76;32.86;102247.78;5104726;28;20047;-38
2022/03/09 02:20:08;;;;;;;5.63;3.50;;;;;;;16.74;33.21;102250.59;5104174;28;20043;-38
2022/03/09 02:22:39;;;;;;;5.25;3.28;;;;;;;16.72;32.48;102248.94;5105039;28;20659;-38
2022/03/09 02:25:12;;;;;;;4.25;3.13;;;;;;;16.71;33.15;102244.56;5102701;28;20159;-38
2022/03/09 02:27:40;;;;;;;5.32;2.80;;;;;;;16.70;32.82;102251.75;5099066;28;20040;-38
2022/03/09 02:30:09;;;;;;;6.25;3.55;;;;;;;16.70;32.44;102249.06;5103106;28;20039;-39
2022/03/09 02:32:44;;;;;;;3.25;2.75;;;;;;;16.69;32.71;102250.03;5103815;28;20446;-39
2022/03/09 02:35:11;;;;;;;5.05;3.60;;;;;;;16.67;32.45;102243.94;5099051;28;20046;-39
2022/03/09 02:37:38;;;;;;;6.00;2.90;;;;;;;16.66;33.34;102244.91;5100382;28;20130;-39
2022/03/09 02:40:08;;;;;;;3.47;2.80;;;;;;;16.66;32.55;102249.41;5100317;28;20044;-39
2022/03/09 02:42:35;;;;;;;4.13;3.05;;;;;;;16.65;32.34;102243.19;5105018;28;20052;-38
2022/03/09 02:45:04;;;;;;;6.80;3.33;;;;;;;16.62;33.58;102238.06;5100467;28;20468;-39
2022/03/09 02:47:31;;;;;;;4.88;3.28;;;;;;;16.63;32.78;102244.25;5099723;28;20083;-38
2022/03/09 02:49:57;;;;;;;5.07;3.30;;;;;;;16.61;32.60;102247.06;5103286;28;20079;-38
2022/03/09 02:52:24;;;;;;;4.57;2.85;;;;;;;16.61;33.53;102244.38;5097224;28;20075;-38
2022/03/09 02:54:51;;;;;;;5.68;3.22;;;;;;;16.60;33.19;102245.31;5100904;28;20042;-39
2022/03/09 02:57:17;;;;;;;3.97;2.90;;;;;;;16.59;33.55;102240.94;5099912;28;20054;-38
2022/03/09 02:59:44;;;;;;;4.57;2.80;;;;;;;16.58;33.62;102235.72;5100680;28;20118;-38
2022/03/09 03:02:10;;;;;;;5.97;3.03;;;;;;;16.57;32.56;102234.00;5099894;28;20056;-38
2022/03/09 03:04:37;;;;;;;3.17;2.70;;;;;;;16.56;33.27;102234.94;5096322;28;20040;-38
2022/03/09 03:07:04;;;;;;;4.57;3.13;;;;;;;16.54;33.21;102238.59;5102861;28;20222;-39
2022/03/09 03:09:31;;;;;;;4.60;2.95;;;;;;;16.53;33.03;102244.94;5102389;28;20047;-38
2022/03/09 03:11:57;;;;;;;4.55;2.70;;;;;;;16.53;32.77;102244.06;5102143;28;20048;-38
2022/03/09 03:14:24;;;;;;;4.07;2.97;;;;;;;16.51;33.88;102246.84;5104077;28;20050;-39
2022/03/09 03:16:50;;;;;;;3.47;2.60;;;;;;;16.52;32.59;102248.59;5100358;28;20059;-37
2022/03/09 03:19:17;;;;;;;3.58;2.75;;;;;;;16.51;32.74;102240.63;5104061;28;20050;-38
2022/03/09 03:21:46;;;;;;;6.28;3.47;;;;;;;16.50;33.08;102239.78;5098319;28;20067;-38
2022/03/09 03:24:13;;;;;;;4.85;3.30;;;;;;;16.49;33.74;102247.94;5098586;28;20139;-38
2022/03/09 03:26:39;;;;;;;3.95;2.58;;;;;;;16.49;33.82;102254.16;5101155;28;20126;-38
2022/03/09 03:29:06;;;;;;;5.25;2.83;;;;;;;16.46;34.02;102249.00;5103148;28;20043;-38
2022/03/09 03:31:33;;;;;;;5.35;3.30;;;;;;;16.47;33.84;102241.81;5101753;28;20062;-38
2022/03/09 03:34:00;;;;;;;5.65;3.10;;;;;;;16.45;33.32;102239.28;5100423;28;20113;-38
2022/03/09 03:36:26;;;;;;;4.57;3.28;;;;;;;16.45;32.87;102243.78;5105379;28;20035;-38
2022/03/09 03:38:53;;;;;;;4.07;2.90;;;;;;;16.44;33.11;102242.03;5100546;28;20130;-38
2022/03/09 03:41:20;;;;;;;3.97;2.72;;;;;;;16.44;33.42;102234.00;5102879;28;20345;-38
2022/03/09 03:43:47;;;;;;;4.65;2.92;;;;;;;16.43;33.69;102226.94;5100581;28;20042;-38
2022/03/09 03:46:13;;;;;;;5.05;2.90;;;;;;;16.43;33.23;102240.31;5100032;28;20048;-38
2022/03/09 03:48:40;;;;;;;3.72;2.58;;;;;;;16.41;33.89;102231.56;5103420;28;20342;-38
2022/03/09 03:51:06;;;;;;;3.78;2.88;;;;;;;16.40;33.35;102236.06;5100798;28;20505;-39
2022/03/09 03:53:33;;;;;;;4.15;2.90;;;;;;;16.40;34.29;102243.22;5105876;28;20039;-38
2022/03/09 03:55:59;;;;;;;4.53;3.03;;;;;;;16.41;33.65;102231.56;5099604;28;20598;-38
2022/03/09 03:58:27;;;;;;;3.40;2.40;;;;;;;16.43;34.27;102235.84;5096913;28;20063;-39
2022/03/09 04:00:53;;;;;;;4.88;2.67;;;;;;;16.52;34.03;102231.63;5103069;28;20126;-38
2022/03/09 04:03:20;;;;;;;4.70;3.15;;;;;;;16.58;33.83;102231.22;5098619;28;20127;-39
2022/03/09 04:05:47;;;;;;;3.42;2.70;;;;;;;16.65;33.86;102235.16;5100801;28;20042;-39
2022/03/09 04:08:13;;;;;;;3.28;2.65;;;;;;;16.73;33.99;102226.63;5100371;28;20048;-39
2022/03/09 04:10:40;;;;;;;2.63;2.15;;;;;;;16.82;34.01;102238.47;5102819;28;20048;-38
2022/03/09 04:13:07;;;;;;;4.38;2.78;;;;;;;16.89;34.35;102237.06;5105692;28;20039;-39
2022/03/09 04:15:33;;;;;;;3.53;2.33;;;;;;;16.97;33.80;102240.88;5106086;28;20063;-39
2022/03/09 04:18:03;;;;;;;4.45;2.75;;;;;;;17.09;33.55;102244.50;5111248;28;20427;-39
2022/03/09 04:20:30;;;;;;;5.25;2.80;;;;;;;17.19;33.69;102245.50;5106233;28;20618;-39
2022/03/09 04:22:56;;;;;;;4.28;2.78;;;;;;;17.31;33.40;102241.06;5107354;28;20050;-39
2022/03/09 04:25:23;;;;;;;3.83;2.70;;;;;;;17.43;33.28;102245.50;5102002;28;20039;-39
2022/03/09 04:27:50;;;;;;;3.85;2.78;;;;;;;17.55;33.19;102241.03;5101309;28;20418;-38
2022/03/09 04:30:16;;;;;;;3.75;2.15;;;;;;;17.65;33.56;102233.16;5102545;28;20127;-39
2022/03/09 04:32:43;;;;;;;4.70;2.75;;;;;;;17.74;33.21;102236.00;5104235;28;20131;-39
2022/03/09 04:35:09;;;;;;;3.58;2.38;;;;;;;17.84;33.24;102238.84;5096110;28;20450;-39
2022/03/09 04:37:36;;;;;;;3.80;2.70;;;;;;;17.93;33.67;102232.78;5100790;28;20050;-39
2022/03/09 04:40:05;;;;;;;3.95;2.55;;;;;;;18.03;32.95;102234.75;5105102;28;20051;-39
2022/03/09 04:42:31;;;;;;;4.63;2.70;;;;;;;18.11;33.13;102241.22;5099379;28;20118;-39
2022/03/09 04:44:58;;;;;;;3.67;2.22;;;;;;;18.18;33.15;102237.06;5103620;28;20158;-39
2022/03/09 04:47:25;;;;;;;5.90;3.28;;;;;;;18.28;33.56;102233.66;5104914;28;20461;-39
2022/03/09 04:49:51;;;;;;;3.50;2.58;;;;;;;18.34;33.14;102235.88;5101553;28;20078;-39
2022/03/09 04:52:19;;;;;;;4.22;2.85;;;;;;;18.40;33.56;102222.78;5103380;28;20097;-38
2022/03/09 04:54:46;;;;;;;4.05;2.67;;;;;;;18.46;33.03;102229.53;5103276;28;20063;-38
2022/03/09 04:57:13;;;;;;;5.45;2.58;;;;;;;18.54;33.40;102231.59;5099204;28;20123;-39
2022/03/09 04:59:40;;;;;;;3.15;2.50;;;;;;;18.59;32.74;102224.03;5105910;28;20047;-38
2022/03/09 05:02:07;;;;;;;6.60;2.78;;;;;;;18.66;32.76;102233.28;5103831;28;20039;-38
2022/03/09 05:04:33;;;;;;;3.50;2.78;;;;;;;18.71;33.10;102231.97;5106825;28;20055;-39
2022/03/09 05:07:00;;;;;;;3.72;2.50;;;;;;;18.76;32.73;102225.38;5102350;28;20046;-38
2022/03/09 05:09:27;;;;;;;6.00;3.00;;;;;;;18.80;32.63;102222.31;5101194;28;20442;-38
2022/03/09 05:11:53;;;;;;;3.55;2.42;;;;;;;18.85;32.94;102225.44;5100031;28;20050;-38
2022/03/09 05:14:20;;;;;;;4.45;2.53;;;;;;;18.89;32.50;102228.75;5101453;28;20178;-38
2022/03/09 05:16:46;;;;;;;3.20;2.20;;;;;;;18.94;32.89;102237.31;5102196;28;20050;-38
2022/03/09 05:19:13;;;;;;;2.97;2.13;;;;;;;18.99;33.02;102243.16;5100044;28;20371;-38
2022/03/09 05:21:40;;;;;;;3.67;2.42;;;;;;;19.03;33.03;102247.28;5096801;28;20128;-38
2022/03/09 05:24:26;;;;;;;4.15;2.63;;;;;;;19.09;33.07;102244.09;5105157;28;20055;-38
2022/03/09 05:26:53;;;;;;;3.00;2.20;;;;;;;19.13;33.22;102244.69;5095054;28;20308;-38
2022/03/09 05:29:20;;;;;;;3.75;2.40;;;;;;;19.15;33.05;102240.91;5096215;28;20119;-38
2022/03/09 05:31:46;;;;;;;5.38;3.03;;;;;;;19.18;32.79;102239.81;5094252;28;20066;-37
2022/03/09 05:34:14;;;;;;;4.65;2.75;;;;;;;19.22;32.53;102239.41;5097066;28;20521;-38
2022/03/09 05:36:41;;;;;;;7.40;3.33;;;;;;;19.23;32.94;102237.59;5098193;28;20047;-38
2022/03/09 05:39:08;;;;;;;6.22;2.88;;;;;;;19.24;32.69;102232.06;5094922;28;20176;-39
2022/03/09 05:41:34;;;;;;;5.18;3.33;;;;;;;19.27;32.65;102240.88;5100510;28;20182;-40
2022/03/09 05:44:01;;;;;;;7.50;3.17;;;;;;;19.28;32.97;102247.94;5097763;28;20365;-39
2022/03/09 05:46:28;;;;;;;4.22;2.78;;;;;;;19.27;32.72;102251.63;5100007;28;20043;-39
2022/03/09 05:48:54;;;;;;;4.82;3.13;;;;;;;19.24;32.70;102253.56;5099352;28;20051;-39
2022/03/09 05:51:21;;;;;;;4.85;3.50;;;;;;;19.23;32.74;102261.78;5097723;28;20056;-39
2022/03/09 05:53:47;;;;;;;5.95;3.63;;;;;;;19.20;32.96;102260.19;5098672;28;20080;-40
2022/03/09 05:56:14;;;;;;;5.13;3.30;;;;;;;19.17;33.00;102271.19;5101205;28;20385;-39
2022/03/09 05:58:41;;;;;;;6.05;3.75;;;;;;;19.14;33.08;102268.78;5099378;27;20066;-39
2022/03/09 06:01:07;;;;;;;7.15;3.28;;;;;;;19.11;32.92;102269.00;5100198;28;20131;-38
2022/03/09 06:03:34;;;;;;;7.75;3.17;;;;;;;19.08;33.31;102273.78;5096588;28;20051;-39
2022/03/09 06:06:01;;;;;;;6.38;3.63;;;;;;;19.04;33.06;102278.56;5096806;28;20320;-39
2022/03/09 06:08:28;;;;;;;5.53;3.45;;;;;;;18.98;33.26;102279.91;5100259;28;20049;-40
2022/03/09 06:10:55;;;;;;;7.50;3.63;;;;;;;18.94;33.41;102282.97;5094384;28;20044;-39
2022/03/09 06:13:22;;;;;;;6.13;3.08;;;;;;;18.89;33.26;102285.16;5101660;28;20071;-40
2022/03/09 06:15:49;;;;;;;4.70;3.35;;;;;;;18.84;32.75;102273.94;5099223;28;20324;-40
2022/03/09 06:18:16;;;;;;;6.15;3.97;;;;;;;18.77;32.56;102270.88;5097385;28;20047;-41
2022/03/09 06:20:43;;;;;;;5.95;3.22;;;;;;;18.72;32.84;102284.69;5099557;28;20081;-40
2022/03/09 06:23:13;;;;;;;8.65;4.05;;;;;;;18.67;32.71;102296.75;5099190;28;20044;-40
2022/03/09 06:25:39;;;;;;;7.03;3.72;;;;;;;18.63;32.76;102285.41;5101262;28;20335;-39
2022/03/09 06:28:06;;;;;;;6.00;4.10;;;;;;;18.61;33.19;102299.91;5098920;28;20120;-39
2022/03/09 06:30:32;;;;;;;6.13;3.83;;;;;;;18.59;33.21;102292.00;5098213;28;20036;-39
2022/03/09 06:32:59;;;;;;;6.20;4.10;;;;;;;18.58;32.97;102294.81;5095619;28;20290;-40
2022/03/09 06:35:26;;;;;;;5.95;3.85;;;;;;;18.57;32.76;102304.69;5097294;28;20042;-40
2022/03/09 06:37:56;;;;;;;7.43;3.83;;;;;;;18.56;32.88;102304.81;5099436;28;20625;-39
2022/03/09 06:40:23;;;;;;;5.55;3.78;;;;;;;18.55;33.31;102300.44;5096955;28;21099;-40
2022/03/09 06:42:49;;;;;;;5.38;3.55;;;;;;;18.52;33.02;102314.94;5101132;28;20042;-40
2022/03/09 06:45:22;;;;;;;5.10;3.60;;;;;;;18.49;32.91;102309.81;5099485;28;20319;-40
2022/03/09 06:47:49;;;;;;;7.32;3.85;;;;;;;18.47;32.78;102323.34;5093114;28;20490;-39
2022/03/09 06:50:15;;;;;;;6.13;3.78;;;;;;;18.45;32.54;102324.44;5097676;28;20063;-39
2022/03/09 06:52:42;;;;;;;6.88;3.67;;;;;;;18.42;32.65;102316.66;5094955;28;20040;-40
2022/03/09 06:55:12;;;;;;;6.50;4.07;;;;;;;18.39;32.90;102322.25;5095501;28;20390;-40
2022/03/09 06:57:39;;;;;;;6.43;4.30;;;;;;;18.36;33.01;102320.66;5095507;28;20040;-39
2022/03/09 07:00:08;;;;;;;8.10;3.50;;;;;;;18.34;32.89;102311.03;5098812;28;20524;-40
2022/03/09 07:02:35;;;;;;;4.97;3.38;;;;;;;18.30;32.71;102313.09;5095857;28;20441;-40
2022/03/09 07:05:01;;;;;;;7.40;4.03;;;;;;;18.27;33.00;102307.09;5102654;28;20340;-39
2022/03/09 07:07:28;;;;;;;5.40;3.40;;;;;;;18.24;32.53;102303.66;5098650;27;20119;-39
2022/03/09 07:09:55;;;;;;;8.18;3.95;;;;;;;18.22;33.15;102305.63;5096425;28;20048;-39
2022/03/09 07:12:21;;;;;;;6.38;3.90;;;;;;;18.20;32.89;102312.09;5086457;28;20051;-39
2022/03/09 07:14:48;;;;;;;5.88;3.72;;;;;;;18.18;32.92;102320.25;5093791;28;20321;-39
2022/03/09 07:17:14;;;;;;;6.43;3.80;;;;;;;18.16;32.92;102314.16;5097489;28;20118;-39
2022/03/09 07:19:41;;;;;;;6.20;3.88;;;;;;;18.15;33.23;102319.66;5097959;28;20044;-39
2022/03/09 07:22:08;;;;;;;5.07;3.67;;;;;;;18.13;33.31;102321.56;5102335;28;20042;-39
2022/03/09 07:24:34;;;;;;;8.70;4.25;;;;;;;18.09;33.35;102320.97;5102559;28;20454;-39
2022/03/09 07:27:01;;;;;;;7.43;3.92;;;;;;;18.08;33.65;102311.19;5097680;28;20040;-39
2022/03/09 07:29:28;;;;;;;6.75;4.07;;;;;;;18.07;34.02;102319.38;5096932;28;20071;-39
2022/03/09 07:31:55;;;;;;;9.05;3.90;;;;;;;18.06;34.14;102321.22;5098101;28;20086;-40
2022/03/09 07:34:23;;;;;;;6.70;3.92;;;;;;;18.03;34.38;102316.06;5093960;28;20056;-39
2022/03/09 07:36:50;;;;;;;7.43;3.65;;;;;;;18.00;34.37;102314.47;5096843;28;20131;-39
2022/03/09 07:39:17;;;;;;;11.18;3.97;;;;;;;17.99;34.56;102315.44;5094833;28;20055;-39
2022/03/09 07:41:43;;;;;;;5.13;3.60;;;;;;;17.98;34.70;102315.59;5098320;28;20048;-40
2022/03/09 07:44:10;;;;;;;9.40;4.13;;;;;;;17.98;34.80;102320.94;5102255;28;20061;-39
2022/03/09 07:46:37;;;;;;;10.18;4.25;;;;;;;17.97;34.95;102319.25;5100872;28;20075;-40
2022/03/09 07:49:03;;;;;;;6.57;4.43;;;;;;;17.95;34.76;102330.06;5101408;28;20342;-40
2022/03/09 07:51:30;;;;;;;9.43;4.22;;;;;;;17.94;34.79;102322.16;5099428;28;20158;-39
2022/03/09 07:53:56;;;;;;;10.32;4.40;;;;;;;17.93;34.81;102325.78;5101896;28;20058;-40
2022/03/09 07:56:23;;;;;;;6.68;4.03;;;;;;;17.93;34.18;102323.09;5102666;28;20063;-39
2022/03/09 07:58:49;;;;;;;6.13;3.70;;;;;;;17.92;34.50;102318.72;5100060;28;20240;-39
2022/03/09 08:01:16;;;;;;;11.73;4.75;;;;;;;17.92;34.46;102316.88;5104117;28;20089;-39
2022/03/09 08:03:44;;;;;;;8.40;4.00;;;;;;;17.90;34.71;102324.22;5102356;28;20127;-39
2022/03/09 08:06:10;;;;;;;9.43;3.88;;;;;;;17.91;34.46;102327.75;5101577;28;20100;-39
2022/03/09 08:08:37;;;;;;;9.50;4.78;;;;;;;17.92;34.31;102326.75;5100598;28;20128;-40
2022/03/09 08:11:06;;;;;;;7.07;4.35;;;;;;;17.93;34.55;102334.72;5097275;28;20070;-39
2022/03/09 08:13:33;;;;;;;8.80;4.63;;;;;;;17.94;34.59;102333.72;5099516;28;20039;-39
2022/03/09 08:16:05;;;;;;;8.18;4.53;;;;;;;17.96;34.98;102330.91;5099084;28;20093;-39
2022/03/09 08:18:32;;;;;;;15.25;4.75;;;;;;;17.98;35.56;102343.25;5102582;28;20055;-39
2022/03/09 08:20:59;;;;;;;8.43;4.20;;;;;;;17.99;35.99;102334.22;5100234;28;20078;-40
2022/03/09 08:23:26;;;;;;;9.52;4.28;;;;;;;18.01;36.15;102334.13;5102280;28;20058;-40
2022/03/09 08:25:54;;;;;;;12.02;4.93;;;;;;;18.05;36.42;102338.28;5102701;28;20126;-39
2022/03/09 08:28:20;;;;;;;11.38;4.30;;;;;;;18.06;36.58;102334.63;5099592;28;20044;-39
2022/03/09 08:30:47;;;;;;;15.48;6.00;;;;;;;18.09;36.65;102331.72;5098727;28;20040;-39
2022/03/09 08:33:14;;;;;;;20.65;5.15;;;;;;;18.11;37.29;102332.44;5102044;27;20047;-39
2022/03/09 08:35:41;;;;;;;18.30;6.20;;;;;;;18.15;37.64;102339.28;5102479;28;20135;-39
2022/03/09 08:38:08;;;;;;;20.98;6.80;;;;;;;18.18;37.87;102333.69;5098210;28;20127;-39
2022/03/09 08:40:34;;;;;;;18.30;7.68;;;;;;;18.22;38.29;102337.00;5100921;28;20055;-39
2022/03/09 08:43:01;;;;;;;20.98;7.78;;;;;;;18.23;38.01;102336.84;5101937;28;20050;-38
2022/03/09 08:45:27;;;;;;;16.63;7.38;;;;;;;18.26;38.11;102341.16;5098285;28;20164;-38
2022/03/09 08:47:54;;;;;;;17.15;7.30;;;;;;;18.29;38.33;102342.72;5099026;28;20074;-39
2022/03/09 08:50:21;;;;;;;14.02;6.60;;;;;;;18.30;38.26;102342.63;5101074;28;20122;-39
2022/03/09 08:53:00;;;;;;;17.80;7.72;;;;;;;18.32;38.28;102340.66;5099298;28;20062;-39
2022/03/09 08:55:27;;;;;;;17.42;6.63;;;;;;;18.33;38.42;102347.75;5100605;28;20134;-39
2022/03/09 08:57:53;;;;;;;15.80;7.38;;;;;;;18.35;38.20;102350.31;5096714;28;20043;-39
2022/03/09 09:00:22;;;;;;;17.52;7.28;;;;;;;18.36;38.03;102349.31;5101731;28;20047;-39
2022/03/09 09:02:48;;;;;;;15.80;6.60;;;;;;;18.39;37.78;102351.78;5100182;28;20098;-39
2022/03/09 09:05:15;;;;;;;14.80;6.82;;;;;;;18.39;38.23;102344.56;5101898;28;20077;-38
2022/03/09 09:07:42;;;;;;;15.20;6.65;;;;;;;18.40;38.30;102348.97;5101134;28;20439;-40
2022/03/09 09:10:09;;;;;;;13.98;6.30;;;;;;;18.40;38.25;102348.97;5100383;28;20146;-39
2022/03/09 09:12:36;;;;;;;12.45;6.72;;;;;;;18.41;38.44;102350.69;5101049;28;20071;-39
2022/03/09 09:15:03;;;;;;;15.68;6.57;;;;;;;18.41;38.59;102349.81;5097778;28;20075;-39
2022/03/09 09:17:30;;;;;;;13.05;6.53;;;;;;;18.42;38.41;102351.56;5100477;28;20735;-39
2022/03/09 09:20:06;;;;;;;16.20;6.35;;;;;;;18.42;38.27;102351.56;5102181;28;20039;-39
2022/03/09 09:22:33;;;;;;;15.32;7.63;;;;;;;18.43;38.25;102351.41;5097692;28;20055;-39
2022/03/09 09:25:20;;;;;;;13.48;6.63;;;;;;;18.44;38.12;102353.13;5102626;28;20043;-39
2022/03/09 09:27:47;;;;;;;14.93;6.05;;;;;;;18.45;38.13;102349.47;5099029;28;20044;-39
2022/03/09 09:30:14;;;;;;;12.20;5.80;;;;;;;18.46;38.18;102347.66;5102322;28;20078;-39
2022/03/09 09:32:41;;;;;;;9.98;5.80;;;;;;;18.48;38.46;102345.69;5100400;28;20043;-40
2022/03/09 09:35:10;;;;;;;10.80;5.38;;;;;;;18.49;38.37;102347.38;5098158;28;20055;-39
2022/03/09 09:37:38;;;;;;;11.75;5.90;;;;;;;18.52;37.91;102343.63;5097693;28;20046;-40
2022/03/09 09:40:07;;;;;;;11.95;5.68;;;;;;;18.52;38.15;102341.78;5100221;28;20044;-40
2022/03/09 09:42:34;;;;;;;10.25;5.68;;;;;;;18.56;38.26;102335.19;5099596;28;20802;-39
2022/03/09 09:45:18;;;;;;;14.10;5.95;;;;;;;18.59;38.13;102334.13;5100681;28;20135;-39
2022/03/09 09:47:45;;;;;;;10.13;5.38;;;;;;;18.62;37.83;102331.19;5098580;28;20123;-41
2022/03/09 09:50:14;;;;;;;14.38;5.63;;;;;;;18.66;38.06;102329.97;5099258;28;20746;-40
2022/03/09 09:52:41;;;;;;;11.13;4.80;;;;;;;18.68;37.75;102331.53;5098294;28;20479;-39
2022/03/09 09:55:08;;;;;;;13.55;5.85;;;;;;;18.72;38.29;102326.81;5097769;28;20058;-40
2022/03/09 09:57:35;;;;;;;12.63;5.18;;;;;;;18.75;37.82;102334.63;5096589;28;20075;-39
2022/03/09 10:00:04;;;;;;;8.13;5.05;;;;;;;18.79;37.88;102327.19;5100196;28;20048;-39
2022/03/09 10:02:31;;;;;;;11.00;5.25;;;;;;;18.83;37.57;102331.34;5099412;28;20130;-40
2022/03/09 10:04:58;;;;;;;10.70;5.43;;;;;;;18.86;37.59;102333.78;5098095;28;20067;-39
2022/03/09 10:07:24;;;;;;;9.52;5.25;;;;;;;18.89;37.57;102328.16;5095561;28;20135;-40
2022/03/09 10:09:51;;;;;;;10.55;5.15;;;;;;;18.93;37.74;102329.63;5098099;28;20135;-39
2022/03/09 10:12:26;;;;;;;12.73;5.43;;;;;;;18.96;37.35;102334.75;5098081;28;20067;-39
2022/03/09 10:14:57;;;;;;;8.15;4.82;;;;;;;19.00;37.45;102333.53;5097911;28;20434;-39
2022/03/09 10:17:29;;;;;;;11.70;4.68;;;;;;;19.04;37.63;102339.50;5096738;28;20044;-41
2022/03/09 10:20:11;;;;;;;8.05;4.93;;;;;;;19.08;37.77;102340.97;5100790;28;20138;-39
2022/03/09 10:22:41;;;;;;;7.70;4.53;;;;;;;19.13;37.58;102344.13;5098212;28;20135;-40
2022/03/09 10:25:20;;;;;;;8.07;4.50;;;;;;;19.15;37.74;102343.03;5098869;28;20047;-39
2022/03/09 10:27:50;;;;;;;8.77;4.57;;;;;;;19.19;37.92;102335.59;5100770;28;20634;-39
2022/03/09 10:30:21;;;;;;;12.45;5.20;;;;;;;19.22;37.65;102338.03;5095184;28;20044;-40
2022/03/09 10:32:54;;;;;;;6.43;4.57;;;;;;;19.24;37.54;102341.44;5099508;28;20055;-39
2022/03/09 10:35:42;;;;;;;8.07;4.63;;;;;;;19.24;37.62;102342.28;5099840;28;20477;-40
2022/03/09 10:38:15;;;;;;;8.75;4.60;;;;;;;19.27;37.41;102345.72;5089809;28;20040;-39
2022/03/09 10:40:51;;;;;;;6.80;4.15;;;;;;;19.27;37.41;102349.25;5098312;28;20050;-40
2022/03/09 10:43:37;;;;;;;7.43;4.78;;;;;;;19.28;37.56;102347.41;5099311;28;20051;-40
2022/03/09 10:46:05;;;;;;;9.80;4.72;;;;;;;19.30;37.15;102343.63;5096644;28;20199;-40
2022/03/09 10:48:50;;;;;;;7.30;4.07;;;;;;;19.29;37.47;102347.28;5101522;28;20553;-40
2022/03/09 10:51:40;;;;;;;7.68;4.53;;;;;;;19.31;37.24;102345.34;5099525;28;20052;-40
2022/03/09 10:54:20;;;;;;;8.85;4.70;;;;;;;19.34;37.22;102344.25;5096558;28;20143;-40
2022/03/09 10:56:47;;;;;;;7.68;4.28;;;;;;;19.35;37.05;102329.81;5097839;28;20127;-40
2022/03/09 10:59:24;;;;;;;6.28;3.90;;;;;;;19.35;37.77;102330.66;5097817;28;20101;-41
2022/03/09 11:02:08;;;;;;;6.85;3.88;;;;;;;19.36;37.74;102326.97;5095846;28;20126;-39
2022/03/09 11:04:38;;;;;;;8.30;4.53;;;;;;;19.37;37.51;102322.44;5100494;28;20044;-38
2022/03/09 11:07:04;;;;;;;7.18;4.07;;;;;;;19.36;37.57;102326.97;5100386;28;20098;-40
2022/03/09 11:09:32;;;;;;;10.88;4.57;;;;;;;19.36;37.81;102323.44;5097517;28;20052;-41
2022/03/09 11:11:59;;;;;;;6.93;4.50;;;;;;;19.36;37.37;102321.59;5099282;28;20035;-40
2022/03/09 11:14:26;;;;;;;11.25;4.22;;;;;;;19.36;37.77;102318.91;5095668;28;20746;-40
2022/03/09 11:16:57;;;;;;;10.35;4.63;;;;;;;19.35;37.33;102311.84;5101838;28;20087;-40
2022/03/09 11:19:24;;;;;;;8.48;5.03;;;;;;;19.36;37.71;102316.22;5099473;28;20058;-40
2022/03/09 11:21:51;;;;;;;6.65;4.28;;;;;;;19.36;37.34;102307.31;5103750;28;20075;-40
2022/03/09 11:24:19;;;;;;;7.43;4.35;;;;;;;19.35;37.49;102302.91;5102982;28;20131;-40
2022/03/09 11:26:54;;;;;;;8.48;4.18;;;;;;;19.35;37.27;102300.22;5105107;28;20063;-40
2022/03/09 11:29:35;;;;;;;8.98;4.68;;;;;;;19.34;37.17;102294.00;5099200;28;20361;-40